Ana Sayfa
METAR-TAF:

METAR-TAF

Havaalanları :

Deer Park Airport

Deer Park, Washington, Amerika Birleşik Devletleri

Enlem: 47-58-27N, Boylam: 117-25-42W, yükseklik: 672 m

Güncel hava durumu gözlemi

Rapor saat 17:53 UTC de 31 dakika önce yapıldı.
Sakin rüzgar
Sıcaklık -3°C
Nem 93%
Basınç 1025 hPa
Görüş mesafesi: 0.4 km
Donan sis

METAR: KDEW 091753Z AUTO 00000KT 1/4SM FZFG VV002 M03/M04 A3027 RMK AO2 SLP275 I6000 T10331044 11028 21033 51014

Saat: 10:24 (18:24 UTC)


TAF: eksik

4.000'den fazla havaalanı için hava durumu gözlemleri ve tahminleri (METAR ve TAF raporları).

Kullanılabilir istasyonlar harita üzerinde sarı ve kırmızı noktalarla gösterilir.

İstasyonun adını görmek için fareyi noktanın üzerinde gezdirin.

Sonrasında hava gözlem ve tahminlerini görmek için tıklayın.

Haritayı değiştirmek için: yaklaştırmak için siyah artı işaretli yeşil düğmeye ve uzaklaştırmak için de eksi işaretli düğmeye hızla tıklayın; bitişik haritalar için yeşil okları kullanın.


METAR-TAF: